Time;durP1;ratioP1;P1;durP2;ratioP2;P2;SDS_P1;SDS_P2;PMS_P1;PMS_P2;Temp;Humidity;BMP_temperature;BMP_pressure;BME280_temperature;BME280_humidity;BME280_pressure;Samples;Min_cycle;Max_cycle;Signal;HPM_P1;HPM_P2
2022/01/08 00:02:19;;;;;;;8.20;6.27;;;2.50;99.90;;;;;;5057681;28;20506;-65
2022/01/08 00:04:47;;;;;;;10.27;6.87;;;2.50;99.90;;;;;;5057573;28;20516;-65
2022/01/08 00:07:14;;;;;;;9.27;6.00;;;2.50;99.90;;;;;;5057875;28;20469;-65
2022/01/08 00:09:41;;;;;;;9.03;6.00;;;2.50;99.90;;;;;;5058060;28;20462;-65
2022/01/08 00:12:12;;;;;;;13.67;6.77;;;2.50;99.90;;;;;;5057244;28;20532;-65
2022/01/08 00:14:40;;;;;;;10.23;6.40;;;2.60;99.90;;;;;;5058711;28;20461;-65
2022/01/08 00:17:06;;;;;;;6.60;5.80;;;2.60;99.90;;;;;;5057694;28;20564;-65
2022/01/08 00:19:33;;;;;;;10.67;6.67;;;2.60;99.90;;;;;;5062320;28;20524;-65
2022/01/08 00:22:02;;;;;;;7.47;5.30;;;2.70;99.90;;;;;;5060816;28;20448;-65
2022/01/08 00:24:29;;;;;;;9.77;5.97;;;2.70;99.90;;;;;;5058452;28;20462;-65
2022/01/08 00:26:56;;;;;;;9.03;6.83;;;2.70;99.90;;;;;;5057633;28;20483;-65
2022/01/08 00:29:23;;;;;;;11.10;6.50;;;2.60;99.90;;;;;;5057360;28;20463;-65
2022/01/08 00:31:50;;;;;;;10.13;6.40;;;2.70;99.90;;;;;;5057080;28;20502;-65
2022/01/08 00:34:17;;;;;;;7.83;6.10;;;2.70;99.90;;;;;;5057890;28;20895;-65
2022/01/08 00:36:46;;;;;;;9.63;6.67;;;2.70;99.90;;;;;;5056515;28;20494;-65
2022/01/08 00:39:15;;;;;;;7.43;6.60;;;2.70;99.90;;;;;;5057693;28;20498;-65
2022/01/08 00:41:42;;;;;;;13.07;8.90;;;2.70;99.90;;;;;;5057598;28;20532;-65
2022/01/08 00:44:09;;;;;;;10.07;6.60;;;2.70;99.90;;;;;;5057080;28;20887;-65
2022/01/08 00:46:36;;;;;;;9.90;6.70;;;2.80;99.90;;;;;;5057295;28;20459;-65
2022/01/08 00:49:08;;;;;;;8.30;6.43;;;2.70;99.90;;;;;;5057167;28;20447;-65
2022/01/08 00:51:35;;;;;;;8.90;6.43;;;2.70;99.90;;;;;;5057582;28;20520;-65
2022/01/08 00:54:02;;;;;;;10.53;6.07;;;2.70;99.90;;;;;;5056266;28;20470;-65
2022/01/08 00:56:31;;;;;;;11.37;6.63;;;2.70;99.90;;;;;;5056416;28;20540;-64
2022/01/08 00:58:58;;;;;;;9.27;6.60;;;2.60;99.90;;;;;;5056985;28;20527;-65
2022/01/08 01:01:25;;;;;;;8.73;6.30;;;2.70;99.90;;;;;;5057497;28;20462;-65
2022/01/08 01:03:52;;;;;;;9.63;6.30;;;2.70;99.90;;;;;;5056601;28;20847;-65
2022/01/08 01:06:22;;;;;;;11.07;6.87;;;2.70;99.90;;;;;;5056419;28;20778;-65
2022/01/08 01:08:50;;;;;;;11.23;6.60;;;2.80;99.90;;;;;;5056474;28;20865;-65
2022/01/08 01:11:19;;;;;;;8.43;6.60;;;2.70;99.90;;;;;;5056311;28;20483;-65
2022/01/08 01:13:47;;;;;;;8.40;6.57;;;2.80;99.90;;;;;;5057114;28;20552;-65
2022/01/08 01:16:14;;;;;;;8.97;6.33;;;2.90;99.90;;;;;;5057173;28;20994;-65
2022/01/08 01:18:41;;;;;;;8.30;6.33;;;2.80;99.90;;;;;;5056167;28;20490;-65
2022/01/08 01:21:09;;;;;;;9.43;6.80;;;2.80;99.90;;;;;;5056199;28;20462;-65
2022/01/08 01:23:40;;;;;;;12.67;7.23;;;2.80;99.90;;;;;;5056789;28;20505;-65
2022/01/08 01:26:12;;;;;;;7.97;6.73;;;2.80;99.90;;;;;;5056458;28;20466;-65
2022/01/08 01:28:46;;;;;;;9.40;7.00;;;2.80;99.90;;;;;;5055978;28;20749;-65
2022/01/08 01:47:42;;;;;;;9.40;6.77;;;2.40;99.90;;;;;;5056411;28;20469;-65
2022/01/08 01:50:10;;;;;;;9.60;6.40;;;2.30;99.90;;;;;;5056206;28;20854;-65
2022/01/08 01:52:38;;;;;;;10.67;7.30;;;2.30;99.90;;;;;;5055391;28;20462;-65
2022/01/08 01:55:07;;;;;;;10.87;7.57;;;2.30;99.90;;;;;;5056265;28;20461;-65
2022/01/08 01:57:34;;;;;;;9.23;7.30;;;2.20;99.90;;;;;;5056779;28;20518;-65
2022/01/08 02:00:02;;;;;;;10.80;8.17;;;2.20;99.90;;;;;;5056073;28;20535;-65
2022/01/08 02:02:29;;;;;;;14.43;8.77;;;2.10;99.90;;;;;;5056445;28;20462;-65
2022/01/08 02:04:57;;;;;;;9.33;6.90;;;2.10;99.90;;;;;;5056527;28;20773;-65
2022/01/08 02:07:27;;;;;;;14.60;8.77;;;2.20;99.90;;;;;;5058197;28;20466;-65
2022/01/08 02:09:55;;;;;;;12.17;9.73;;;2.20;99.90;;;;;;5060047;28;20458;-65
2022/01/08 02:12:22;;;;;;;12.60;8.90;;;2.30;99.90;;;;;;5059635;28;20478;-65
2022/01/08 02:14:50;;;;;;;11.77;8.70;;;2.30;99.90;;;;;;5060826;28;20458;-65
2022/01/08 02:17:18;;;;;;;10.00;8.40;;;2.20;99.90;;;;;;5060072;28;20531;-65
2022/01/08 02:19:45;;;;;;;15.93;9.00;;;2.30;99.90;;;;;;5060519;28;20469;-65
2022/01/08 02:22:16;;;;;;;13.00;8.93;;;2.30;99.90;;;;;;5059318;28;20899;-65
2022/01/08 02:24:45;;;;;;;11.47;9.13;;;2.40;99.90;;;;;;5059825;28;20845;-65
2022/01/08 02:27:12;;;;;;;12.67;8.50;;;2.40;99.90;;;;;;5059808;28;20512;-65
2022/01/08 02:29:39;;;;;;;11.47;7.80;;;2.40;99.90;;;;;;5059658;28;20461;-65
2022/01/08 02:32:09;;;;;;;17.97;8.93;;;2.40;99.90;;;;;;5059435;28;20463;-65
2022/01/08 02:34:37;;;;;;;10.47;9.10;;;2.40;99.90;;;;;;5060082;28;20497;-65
2022/01/08 02:37:05;;;;;;;12.43;9.50;;;2.40;99.90;;;;;;5059829;28;20494;-65
2022/01/08 02:39:38;;;;;;;12.87;8.70;;;2.30;99.90;;;;;;5059569;28;20960;-65
2022/01/08 02:42:11;;;;;;;17.93;11.00;;;2.30;99.90;;;;;;5059524;28;20808;-65
2022/01/08 02:44:40;;;;;;;13.03;9.70;;;2.40;99.90;;;;;;5059802;28;20753;-65
2022/01/08 02:47:07;;;;;;;18.63;13.20;;;2.40;99.90;;;;;;5060326;28;20465;-65
2022/01/08 02:49:35;;;;;;;21.57;14.77;;;2.30;99.90;;;;;;5059201;28;20600;-65
2022/01/08 02:52:02;;;;;;;31.23;16.53;;;2.30;99.90;;;;;;5058995;28;20898;-65
2022/01/08 02:54:33;;;;;;;22.17;15.67;;;2.30;99.90;;;;;;5059661;28;20976;-65
2022/01/08 02:57:00;;;;;;;20.40;14.03;;;2.30;99.90;;;;;;5059793;28;20919;-65
2022/01/08 02:59:27;;;;;;;22.10;14.57;;;2.30;99.90;;;;;;5058932;28;20497;-65
2022/01/08 03:01:55;;;;;;;19.33;14.93;;;2.30;99.90;;;;;;5059344;28;20934;-64
2022/01/08 03:04:22;;;;;;;19.73;13.60;;;2.30;99.90;;;;;;5059048;28;20536;-65
2022/01/08 03:06:49;;;;;;;17.60;13.10;;;2.30;99.90;;;;;;5059702;28;20455;-65
2022/01/08 03:09:16;;;;;;;22.50;15.57;;;2.30;99.90;;;;;;5058874;28;20528;-64
2022/01/08 03:11:44;;;;;;;21.37;15.43;;;2.30;99.90;;;;;;5051461;28;20487;-64
2022/01/08 03:14:11;;;;;;;25.93;16.90;;;2.30;99.90;;;;;;5059198;28;20462;-64
2022/01/08 03:16:38;;;;;;;28.30;18.90;;;2.20;99.90;;;;;;5059080;28;20463;-64
2022/01/08 03:19:10;;;;;;;29.40;21.50;;;2.10;99.90;;;;;;5062651;28;20515;-64
2022/01/08 03:21:41;;;;;;;31.23;20.63;;;2.20;99.90;;;;;;5058599;28;20466;-64
2022/01/08 03:24:10;;;;;;;29.13;21.47;;;2.20;99.90;;;;;;5058676;28;20901;-64
2022/01/08 03:26:38;;;;;;;29.33;20.60;;;2.20;99.90;;;;;;5058685;28;20833;-64
2022/01/08 03:29:07;;;;;;;27.20;19.47;;;2.10;99.90;;;;;;5059106;28;20441;-64
2022/01/08 03:31:35;;;;;;;29.53;20.87;;;2.10;99.90;;;;;;5056630;28;20469;-64
2022/01/08 03:34:03;;;;;;;28.83;21.10;;;2.10;99.90;;;;;;5056893;28;20462;-64
2022/01/08 03:36:29;;;;;;;31.13;20.90;;;2.10;99.90;;;;;;5058364;28;20466;-64
2022/01/08 03:38:57;;;;;;;30.27;21.00;;;2.10;99.90;;;;;;5058687;28;20459;-64
2022/01/08 03:41:24;;;;;;;31.70;21.13;;;2.10;99.90;;;;;;5058255;28;20515;-63
2022/01/08 03:43:51;;;;;;;29.50;22.63;;;2.10;99.90;;;;;;5057846;28;20498;-63
2022/01/08 03:46:21;;;;;;;29.37;20.10;;;2.00;99.90;;;;;;5058548;28;20491;-63
2022/01/08 03:49:11;;;;;;;27.90;20.50;;;2.00;99.90;;;;;;5058637;28;20465;-63
2022/01/08 03:51:37;;;;;;;29.70;22.53;;;2.00;99.90;;;;;;5057088;28;20644;-63
2022/01/08 03:54:04;;;;;;;34.00;22.70;;;1.90;99.90;;;;;;5058218;28;20462;-63
2022/01/08 03:56:33;;;;;;;37.03;23.03;;;1.90;99.90;;;;;;5058603;28;20749;-63
2022/01/08 03:59:00;;;;;;;34.30;24.20;;;1.90;99.90;;;;;;5058569;28;20827;-63
2022/01/08 04:01:28;;;;;;;42.70;26.17;;;2.00;99.90;;;;;;5057685;28;20466;-63
2022/01/08 04:03:56;;;;;;;41.20;24.23;;;2.00;99.90;;;;;;5058207;28;20462;-63
2022/01/08 04:06:24;;;;;;;38.90;25.30;;;2.00;99.90;;;;;;5038269;28;20463;-63
2022/01/08 04:08:56;;;;;;;37.80;24.63;;;2.00;99.90;;;;;;5038442;28;20462;-63
2022/01/08 04:11:24;;;;;;;46.03;24.77;;;2.10;99.90;;;;;;5044391;28;20497;-63
2022/01/08 04:13:51;;;;;;;34.63;24.07;;;2.00;99.90;;;;;;5057895;28;20561;-63
2022/01/08 04:16:23;;;;;;;34.50;23.17;;;2.00;99.90;;;;;;5058207;28;20549;-63
2022/01/08 04:18:51;;;;;;;33.70;23.67;;;2.00;99.90;;;;;;5058690;28;20493;-63
2022/01/08 04:21:58;;;;;;;35.00;22.40;;;1.90;99.90;;;;;;5062334;28;20462;-64
2022/01/08 04:24:14;;;;;;;35.07;21.73;;;2.00;99.90;;;;;;5058622;28;20891;-63
2022/01/08 04:26:41;;;;;;;37.27;23.10;;;2.00;99.90;;;;;;5059305;28;20524;-63
2022/01/08 04:29:08;;;;;;;35.83;25.00;;;2.00;99.90;;;;;;5059172;28;20492;-63
2022/01/08 04:31:35;;;;;;;35.70;24.00;;;2.00;99.90;;;;;;5058859;28;20462;-63
2022/01/08 04:34:03;;;;;;;32.00;24.50;;;2.10;99.90;;;;;;5058013;28;20489;-63
2022/01/08 04:36:30;;;;;;;35.60;24.83;;;2.00;99.90;;;;;;5058045;28;20789;-63
2022/01/08 04:38:57;;;;;;;32.50;25.43;;;2.00;99.90;;;;;;5058367;28;20529;-63
2022/01/08 04:41:24;;;;;;;34.20;25.50;;;2.10;99.90;;;;;;5058281;28;20470;-63
2022/01/08 04:43:51;;;;;;;37.23;25.30;;;2.00;99.90;;;;;;5057832;28;20462;-63
2022/01/08 04:46:18;;;;;;;38.53;26.67;;;2.10;99.90;;;;;;5058381;28;20462;-63
2022/01/08 04:48:45;;;;;;;33.40;23.40;;;2.00;99.90;;;;;;5057746;28;20914;-63
2022/01/08 04:51:17;;;;;;;39.00;26.60;;;2.00;99.90;;;;;;5056721;28;20492;-63
2022/01/08 04:53:44;;;;;;;33.87;25.13;;;1.90;99.90;;;;;;5056610;28;20584;-63
2022/01/08 04:56:11;;;;;;;41.70;25.80;;;1.90;99.90;;;;;;5058162;28;20474;-63
2022/01/08 04:58:38;;;;;;;42.47;26.90;;;1.80;99.90;;;;;;5057691;28;20494;-64
2022/01/08 05:01:05;;;;;;;38.23;25.87;;;1.80;99.90;;;;;;5058165;28;20461;-64
2022/01/08 05:03:32;;;;;;;34.97;25.17;;;1.80;99.90;;;;;;5057446;28;20485;-64
2022/01/08 05:05:59;;;;;;;38.73;24.90;;;1.80;99.90;;;;;;5057317;28;20458;-64
2022/01/08 05:08:28;;;;;;;40.17;25.50;;;1.80;99.90;;;;;;5057161;28;20789;-64
2022/01/08 05:10:54;;;;;;;34.20;23.87;;;1.70;99.90;;;;;;5055386;28;20981;-64
2022/01/08 05:13:21;;;;;;;38.87;28.20;;;1.80;99.90;;;;;;4998630;28;20504;-64
2022/01/08 05:15:49;;;;;;;39.20;24.37;;;1.80;99.90;;;;;;5013524;28;20464;-64
2022/01/08 05:18:17;;;;;;;39.70;26.13;;;1.80;99.90;;;;;;5017847;28;20933;-64
2022/01/08 05:20:53;;;;;;;43.23;25.40;;;1.80;99.90;;;;;;5018374;28;20508;-63
2022/01/08 05:23:22;;;;;;;36.63;26.70;;;1.80;99.90;;;;;;5017440;28;20920;-63
2022/01/08 05:25:50;;;;;;;35.73;25.70;;;1.80;99.90;;;;;;5016975;28;20570;-64
2022/01/08 05:28:20;;;;;;;37.90;26.70;;;1.70;99.90;;;;;;5017533;28;20456;-64
2022/01/08 05:30:50;;;;;;;32.50;25.00;;;1.70;99.90;;;;;;5017685;28;20464;-64
2022/01/08 05:33:17;;;;;;;33.50;25.63;;;1.70;99.90;;;;;;5017480;28;20542;-64
2022/01/08 05:35:45;;;;;;;39.50;28.40;;;1.70;99.90;;;;;;5016675;28;20472;-64
2022/01/08 05:38:12;;;;;;;44.83;27.43;;;1.70;99.90;;;;;;5017031;28;20514;-64
2022/01/08 05:40:39;;;;;;;33.77;26.00;;;1.70;99.90;;;;;;5017341;28;20489;-64
2022/01/08 05:43:07;;;;;;;39.90;26.80;;;1.70;99.90;;;;;;5023580;28;20463;-64
2022/01/08 05:45:35;;;;;;;46.30;26.97;;;1.60;99.90;;;;;;5022909;28;20815;-64
2022/01/08 05:48:01;;;;;;;45.23;28.57;;;1.60;99.90;;;;;;5023715;28;20773;-64
2022/01/08 05:50:28;;;;;;;39.17;27.73;;;1.60;99.90;;;;;;5023554;28;20787;-64
2022/01/08 05:52:56;;;;;;;44.17;27.87;;;1.60;99.90;;;;;;5022529;28;20457;-64
2022/01/08 05:55:23;;;;;;;50.23;29.60;;;1.70;99.90;;;;;;5023649;28;20471;-64
2022/01/08 05:57:50;;;;;;;38.07;26.73;;;1.70;99.90;;;;;;5022316;28;20487;-64
2022/01/08 06:00:19;;;;;;;39.40;27.80;;;1.60;99.90;;;;;;5023410;28;20471;-64
2022/01/08 06:02:46;;;;;;;38.90;27.07;;;1.70;99.90;;;;;;5023088;28;20463;-64
2022/01/08 06:05:13;;;;;;;40.63;27.47;;;1.70;99.90;;;;;;5023564;28;20529;-64
2022/01/08 06:07:40;;;;;;;35.13;25.57;;;1.60;99.90;;;;;;5022272;28;20464;-64
2022/01/08 06:10:10;;;;;;;36.07;25.23;;;1.60;99.90;;;;;;5023332;28;20460;-64
2022/01/08 06:12:37;;;;;;;36.87;24.20;;;1.60;99.90;;;;;;5037198;28;20497;-64
2022/01/08 06:15:05;;;;;;;35.80;24.83;;;1.60;99.90;;;;;;5043188;28;20536;-64
2022/01/08 06:17:34;;;;;;;32.80;24.67;;;1.50;99.90;;;;;;5043844;28;20953;-63
2022/01/08 06:20:00;;;;;;;32.87;24.80;;;1.50;99.90;;;;;;5063542;28;20515;-63
2022/01/08 06:22:28;;;;;;;38.57;24.70;;;1.50;99.90;;;;;;5061798;28;20465;-63
2022/01/08 06:24:54;;;;;;;46.67;26.13;;;1.50;99.90;;;;;;5063181;28;20474;-64
2022/01/08 06:27:21;;;;;;;35.33;25.73;;;1.50;99.90;;;;;;5063462;28;20462;-63
2022/01/08 06:29:48;;;;;;;37.60;24.70;;;1.50;99.90;;;;;;5062013;28;20927;-63
2022/01/08 06:32:16;;;;;;;33.20;26.17;;;1.40;99.90;;;;;;5063042;28;20945;-63
2022/01/08 06:34:45;;;;;;;36.50;25.23;;;1.40;99.90;;;;;;5062981;28;20466;-63
2022/01/08 06:37:12;;;;;;;30.17;23.90;;;1.40;99.90;;;;;;5062976;28;20513;-63
2022/01/08 06:39:39;;;;;;;30.13;24.07;;;1.30;99.90;;;;;;5062338;28;20525;-64
2022/01/08 06:42:06;;;;;;;35.80;25.50;;;1.40;99.90;;;;;;5063657;28;20458;-64
2022/01/08 06:44:33;;;;;;;38.27;24.70;;;1.40;99.90;;;;;;5063350;28;20470;-64
2022/01/08 06:47:00;;;;;;;41.33;25.80;;;1.40;99.90;;;;;;5063333;28;20461;-63
2022/01/08 06:49:27;;;;;;;36.40;26.53;;;1.40;99.90;;;;;;5062650;28;20458;-63
2022/01/08 06:51:55;;;;;;;39.07;25.30;;;1.50;99.90;;;;;;5062223;28;20883;-64
2022/01/08 06:54:22;;;;;;;35.87;26.00;;;1.50;99.90;;;;;;5058275;28;20462;-64
2022/01/08 06:56:49;;;;;;;39.97;25.07;;;1.40;99.90;;;;;;5059787;28;20462;-64
2022/01/08 06:59:16;;;;;;;36.90;26.07;;;1.50;99.90;;;;;;5059617;28;20801;-64
2022/01/08 07:01:43;;;;;;;43.43;29.80;;;1.50;99.90;;;;;;5059164;28;20462;-64
2022/01/08 07:04:10;;;;;;;39.80;26.50;;;1.60;99.90;;;;;;5059076;28;20466;-63
2022/01/08 07:06:40;;;;;;;46.23;27.60;;;1.50;99.90;;;;;;5059949;28;20465;-63
2022/01/08 07:09:08;;;;;;;41.10;28.63;;;1.50;99.90;;;;;;5060169;28;20815;-63
2022/01/08 07:11:35;;;;;;;42.20;27.30;;;1.50;99.90;;;;;;5051336;28;20534;-64
2022/01/08 07:14:02;;;;;;;44.77;27.37;;;1.50;99.90;;;;;;5050154;28;20516;-63
2022/01/08 07:16:30;;;;;;;44.23;28.77;;;1.50;99.90;;;;;;5060023;28;20497;-63
2022/01/08 07:18:57;;;;;;;52.33;27.87;;;1.60;99.90;;;;;;5060243;28;20493;-63
2022/01/08 07:21:24;;;;;;;37.90;26.60;;;1.60;99.90;;;;;;5059612;28;20466;-63
2022/01/08 07:23:53;;;;;;;36.97;27.10;;;1.60;99.90;;;;;;5058693;28;20981;-63
2022/01/08 07:26:21;;;;;;;42.33;26.53;;;1.60;99.90;;;;;;5059456;28;20541;-63
2022/01/08 07:28:51;;;;;;;35.30;23.47;;;1.60;99.90;;;;;;5059971;28;20811;-63
2022/01/08 07:31:18;;;;;;;37.27;24.90;;;1.70;99.90;;;;;;5059064;28;20462;-63
2022/01/08 07:33:49;;;;;;;36.43;25.53;;;1.60;99.90;;;;;;5059420;28;20516;-63
2022/01/08 07:36:17;;;;;;;37.13;24.83;;;1.70;99.90;;;;;;5059830;28;20895;-62
2022/01/08 07:38:44;;;;;;;37.07;25.70;;;1.70;99.90;;;;;;5059604;28;20584;-62
2022/01/08 07:41:11;;;;;;;41.23;27.50;;;1.70;99.90;;;;;;5059505;28;20469;-63
2022/01/08 07:43:39;;;;;;;39.90;24.60;;;1.70;99.90;;;;;;5058998;28;20552;-63
2022/01/08 07:46:08;;;;;;;38.37;26.33;;;1.80;99.90;;;;;;5059254;28;20985;-63
2022/01/08 07:48:35;;;;;;;38.27;25.20;;;1.80;99.90;;;;;;5059324;28;20462;-63
2022/01/08 07:51:05;;;;;;;36.83;24.57;;;1.80;99.90;;;;;;5059125;28;20463;-63
2022/01/08 07:53:32;;;;;;;33.73;23.60;;;1.80;99.90;;;;;;5057638;28;20470;-64
2022/01/08 07:55:59;;;;;;;33.50;23.77;;;1.80;99.90;;;;;;5058707;28;20895;-64
2022/01/08 07:58:26;;;;;;;36.83;24.30;;;1.80;99.90;;;;;;5059584;28;20544;-63
2022/01/08 08:00:54;;;;;;;44.40;24.53;;;1.80;99.90;;;;;;5058792;28;20458;-64
2022/01/08 08:03:22;;;;;;;33.20;21.73;;;1.90;99.90;;;;;;5057487;28;20459;-64
2022/01/08 08:05:49;;;;;;;35.53;25.00;;;1.90;99.90;;;;;;5057383;28;20504;-64
2022/01/08 08:08:17;;;;;;;29.77;21.27;;;1.90;99.90;;;;;;5057824;28;20911;-64
2022/01/08 08:10:44;;;;;;;33.37;21.07;;;2.00;99.90;;;;;;5058229;28;20884;-63
2022/01/08 08:13:11;;;;;;;36.60;21.97;;;2.00;99.90;;;;;;5058168;28;20489;-62
2022/01/08 08:15:38;;;;;;;32.53;22.57;;;2.00;99.90;;;;;;5057976;28;20474;-62
2022/01/08 08:18:07;;;;;;;37.17;22.20;;;1.90;99.90;;;;;;5057978;28;20466;-62
2022/01/08 08:20:37;;;;;;;31.27;20.37;;;1.90;99.90;;;;;;5058599;28;20536;-62
2022/01/08 08:23:04;;;;;;;30.80;21.07;;;1.80;99.90;;;;;;5057812;28;20466;-62
2022/01/08 08:25:34;;;;;;;29.27;19.97;;;1.90;99.90;;;;;;5057666;28;20517;-62
2022/01/08 08:28:04;;;;;;;40.07;24.40;;;1.90;99.90;;;;;;5058049;28;20458;-62
2022/01/08 08:30:33;;;;;;;31.53;20.37;;;1.90;99.90;;;;;;5058356;28;20447;-62
2022/01/08 08:33:00;;;;;;;31.13;19.80;;;2.00;99.90;;;;;;5058817;28;20505;-62
2022/01/08 08:35:28;;;;;;;32.83;21.50;;;2.00;99.90;;;;;;5057273;28;20460;-62
2022/01/08 08:37:55;;;;;;;41.03;21.40;;;2.00;99.90;;;;;;5057985;28;20887;-62
2022/01/08 08:40:22;;;;;;;41.83;22.17;;;2.00;99.90;;;;;;5057654;28;20555;-62
2022/01/08 08:42:50;;;;;;;36.10;21.43;;;2.00;99.90;;;;;;5058068;28;20462;-63
2022/01/08 08:45:16;;;;;;;38.53;22.03;;;2.00;99.90;;;;;;5057446;28;20488;-62
2022/01/08 08:47:44;;;;;;;38.90;21.40;;;2.00;99.90;;;;;;5057454;28;20505;-62
2022/01/08 08:50:13;;;;;;;36.33;22.53;;;2.00;99.90;;;;;;5057382;28;20458;-62
2022/01/08 08:52:41;;;;;;;34.90;22.47;;;2.00;99.90;;;;;;5057115;28;20806;-62
2022/01/08 08:55:10;;;;;;;37.27;22.80;;;2.00;99.90;;;;;;5056281;28;20970;-62
2022/01/08 08:57:39;;;;;;;33.73;21.60;;;2.00;99.90;;;;;;5053879;28;20741;-62
2022/01/08 09:00:07;;;;;;;31.07;22.27;;;2.10;99.90;;;;;;5056121;28;20780;-62
2022/01/08 09:02:38;;;;;;;40.73;24.50;;;2.00;99.90;;;;;;5056263;28;20464;-62
2022/01/08 09:05:09;;;;;;;34.33;22.67;;;2.10;99.90;;;;;;5056766;28;20476;-62
2022/01/08 09:07:41;;;;;;;39.73;25.90;;;2.10;99.90;;;;;;5053017;28;20459;-62
2022/01/08 09:10:13;;;;;;;37.23;24.20;;;2.10;99.90;;;;;;5057682;28;20459;-62
2022/01/08 09:12:42;;;;;;;41.50;21.83;;;2.20;99.90;;;;;;5055415;28;20486;-62
2022/01/08 09:15:20;;;;;;;38.53;22.87;;;2.20;99.90;;;;;;5053732;28;20512;-62
2022/01/08 09:17:48;;;;;;;45.10;26.33;;;2.10;99.90;;;;;;5053029;28;20467;-62
2022/01/08 09:20:17;;;;;;;38.30;23.40;;;2.20;99.90;;;;;;5055393;28;20503;-62
2022/01/08 09:22:44;;;;;;;38.07;23.40;;;2.30;99.90;;;;;;5056678;28;20519;-62
2022/01/08 09:25:12;;;;;;;39.23;24.20;;;2.40;99.90;;;;;;5068306;28;20462;-62
2022/01/08 09:27:39;;;;;;;36.27;22.20;;;2.30;99.90;;;;;;5077716;28;20465;-62
2022/01/08 09:30:07;;;;;;;38.23;22.20;;;2.30;99.90;;;;;;5076573;28;20469;-62
2022/01/08 09:32:35;;;;;;;42.27;24.63;;;2.30;99.90;;;;;;5057354;28;20466;-62
2022/01/08 09:35:04;;;;;;;37.57;21.67;;;2.30;99.90;;;;;;5057199;28;20462;-62
2022/01/08 09:37:33;;;;;;;35.40;22.87;;;2.30;99.90;;;;;;5057129;28;20469;-62
2022/01/08 09:40:00;;;;;;;37.17;24.17;;;2.30;99.90;;;;;;5057408;28;20567;-62
2022/01/08 09:42:34;;;;;;;43.10;24.07;;;2.40;99.90;;;;;;5056389;28;20849;-62
2022/01/08 09:45:02;;;;;;;38.93;23.50;;;2.40;99.90;;;;;;5057608;28;20437;-62
2022/01/08 09:47:29;;;;;;;38.93;22.40;;;2.40;99.90;;;;;;5057161;28;20465;-62
2022/01/08 09:49:56;;;;;;;36.47;23.47;;;2.40;99.90;;;;;;5057402;28;20482;-62
2022/01/08 09:52:23;;;;;;;43.17;25.63;;;2.50;99.90;;;;;;5056317;28;20981;-62
2022/01/08 09:54:50;;;;;;;33.33;21.80;;;2.50;99.90;;;;;;5057435;28;20887;-62
2022/01/08 09:57:17;;;;;;;39.30;21.80;;;2.60;99.90;;;;;;5057211;28;20904;-62
2022/01/08 09:59:48;;;;;;;37.40;21.23;;;2.60;99.90;;;;;;5057388;28;20533;-62
2022/01/08 10:02:23;;;;;;;31.57;21.93;;;2.60;99.90;;;;;;5056543;28;20462;-62
2022/01/08 10:04:51;;;;;;;33.17;20.43;;;2.70;99.90;;;;;;5057008;28;20462;-62
2022/01/08 10:07:25;;;;;;;31.53;19.27;;;2.60;99.90;;;;;;5056630;28;20458;-62
2022/01/08 10:10:03;;;;;;;34.00;20.00;;;2.70;99.90;;;;;;5056961;28;20759;-63
2022/01/08 10:12:42;;;;;;;30.37;20.20;;;2.70;99.90;;;;;;5045222;28;20853;-62
2022/01/08 10:17:57;;;;;;;28.07;18.50;;;2.80;99.90;;;;;;5052962;28;20449;-62
2022/01/08 10:20:35;;;;;;;26.57;17.63;;;2.90;99.90;;;;;;5053915;28;20800;-62
2022/01/08 10:23:17;;;;;;;30.13;16.87;;;3.00;99.90;;;;;;5055954;28;20478;-62
2022/01/08 10:26:00;;;;;;;37.50;22.30;;;3.10;99.90;;;;;;5038297;28;20505;-62
2022/01/08 10:28:35;;;;;;;32.60;19.30;;;3.10;99.90;;;;;;5058177;28;20819;-62
2022/01/08 10:31:12;;;;;;;39.20;22.37;;;2.90;99.90;;;;;;5057207;28;20959;-63
2022/01/08 10:33:40;;;;;;;29.93;18.47;;;2.80;99.90;;;;;;5056756;28;20762;-63
2022/01/08 10:36:08;;;;;;;24.67;15.57;;;2.90;99.90;;;;;;5055422;28;20533;-63
2022/01/08 10:38:39;;;;;;;31.10;15.80;;;2.90;99.90;;;;;;5059470;28;20457;-63
2022/01/08 10:41:14;;;;;;;29.07;17.07;;;2.80;99.90;;;;;;5063389;28;20511;-63
2022/01/08 10:43:42;;;;;;;30.80;19.23;;;2.80;99.90;;;;;;5071308;28;20462;-63
2022/01/08 10:46:17;;;;;;;31.77;18.37;;;2.70;99.90;;;;;;5058607;28;20519;-63
2022/01/08 10:48:47;;;;;;;32.73;16.97;;;2.80;99.90;;;;;;5049255;28;20441;-63
2022/01/08 10:51:22;;;;;;;23.43;15.63;;;2.80;99.90;;;;;;5056218;28;20462;-63
2022/01/08 10:53:59;;;;;;;20.40;13.37;;;2.90;99.90;;;;;;5046623;28;20458;-63
2022/01/08 10:56:28;;;;;;;21.10;14.20;;;2.90;99.90;;;;;;5058149;28;20497;-63
2022/01/08 10:59:01;;;;;;;26.03;14.10;;;3.00;99.90;;;;;;5064609;28;20508;-63
2022/01/08 11:01:58;;;;;;;18.77;10.80;;;3.20;99.90;;;;;;5067254;28;20515;-63
2022/01/08 11:04:40;;;;;;;19.60;11.50;;;3.20;99.90;;;;;;5043015;28;20481;-63
2022/01/08 11:07:09;;;;;;;17.33;11.37;;;3.30;99.90;;;;;;5048420;28;20895;-63
2022/01/08 11:09:38;;;;;;;20.13;11.70;;;3.20;99.90;;;;;;5054861;28;20458;-63
2022/01/08 11:12:11;;;;;;;21.17;11.93;;;3.20;99.90;;;;;;5058506;28;20934;-63
2022/01/08 11:15:01;;;;;;;17.73;12.13;;;3.30;99.90;;;;;;5056410;28;20463;-63
2022/01/08 11:17:37;;;;;;;16.00;10.30;;;3.50;99.90;;;;;;5059126;28;20778;-63
2022/01/08 11:20:08;;;;;;;18.03;10.17;;;3.70;99.90;;;;;;5056372;28;20512;-63
2022/01/08 11:22:37;;;;;;;15.60;9.90;;;3.70;99.90;;;;;;5057222;28;20500;-62
2022/01/08 11:25:10;;;;;;;19.20;8.53;;;3.70;99.90;;;;;;5057625;28;20469;-63
2022/01/08 11:27:53;;;;;;;17.73;8.40;;;3.60;99.90;;;;;;5058796;28;20500;-63
2022/01/08 11:30:25;;;;;;;15.47;10.60;;;3.40;99.90;;;;;;5058641;28;20548;-63
2022/01/08 11:32:57;;;;;;;14.10;8.87;;;3.30;99.90;;;;;;5058493;28;20447;-63
2022/01/08 11:35:25;;;;;;;11.27;7.80;;;3.30;99.90;;;;;;5058635;28;20472;-64
2022/01/08 11:37:55;;;;;;;13.80;8.10;;;3.30;99.90;;;;;;5058439;28;20766;-63
2022/01/08 11:40:25;;;;;;;12.33;8.60;;;3.20;99.90;;;;;;5051511;28;20530;-63
2022/01/08 11:42:52;;;;;;;14.43;10.23;;;3.20;99.90;;;;;;5058604;28;20520;-63
2022/01/08 11:45:25;;;;;;;12.13;7.93;;;3.30;99.90;;;;;;5057651;28;20469;-63
2022/01/08 11:47:57;;;;;;;13.00;7.40;;;3.30;99.90;;;;;;5055622;28;20749;-63
2022/01/08 11:50:28;;;;;;;14.40;8.10;;;3.30;99.90;;;;;;5058383;28;20501;-63
2022/01/08 11:53:19;;;;;;;16.40;9.93;;;3.40;99.90;;;;;;5058419;28;20463;-63
2022/01/08 11:55:57;;;;;;;9.10;7.33;;;3.30;99.90;;;;;;5058752;28;20948;-63
2022/01/08 11:58:27;;;;;;;10.30;7.63;;;3.40;99.90;;;;;;5058048;28;20470;-62
2022/01/08 12:00:57;;;;;;;9.73;7.70;;;3.40;99.90;;;;;;5058571;28;20469;-62
2022/01/08 12:03:34;;;;;;;12.47;7.10;;;3.50;99.90;;;;;;5059075;28;20467;-62
2022/01/08 12:06:33;;;;;;;12.00;8.23;;;3.60;99.90;;;;;;5058493;28;20892;-62
2022/01/08 12:09:10;;;;;;;11.60;6.60;;;3.70;99.90;;;;;;5055570;28;20474;-62
2022/01/08 12:12:03;;;;;;;10.17;6.53;;;3.60;99.90;;;;;;5057992;28;20497;-63
2022/01/08 12:14:45;;;;;;;11.17;7.60;;;3.60;99.90;;;;;;5058703;28;20463;-62
2022/01/08 12:17:13;;;;;;;8.43;6.30;;;3.50;99.90;;;;;;5057599;28;20840;-62
2022/01/08 12:19:52;;;;;;;9.50;6.37;;;3.60;99.90;;;;;;5057115;28;20499;-63
2022/01/08 12:22:36;;;;;;;10.23;6.00;;;3.50;99.90;;;;;;5056523;28;20531;-63
2022/01/08 12:25:05;;;;;;;8.53;5.97;;;3.50;99.90;;;;;;5055459;28;20450;-63
2022/01/08 12:27:45;;;;;;;10.73;6.83;;;3.50;99.90;;;;;;5057812;28;20508;-63
2022/01/08 12:30:35;;;;;;;11.90;5.90;;;3.50;99.90;;;;;;5056057;28;20760;-62
2022/01/08 12:33:20;;;;;;;9.90;6.10;;;3.70;99.90;;;;;;5055615;28;20935;-62
2022/01/08 12:35:55;;;;;;;8.03;4.90;;;3.80;99.90;;;;;;5055866;28;20749;-62
2022/01/08 12:38:28;;;;;;;9.10;6.10;;;3.80;99.90;;;;;;5052119;28;20481;-62
2022/01/08 12:40:56;;;;;;;19.60;8.40;;;3.80;86.60;;;;;;5057060;28;21210;-62
2022/01/08 12:43:35;;;;;;;13.53;8.80;;;3.80;21.00;;;;;;5055631;28;20494;-62
2022/01/08 12:46:27;;;;;;;14.70;8.80;;;3.90;29.10;;;;;;5052650;28;20462;-62
2022/01/08 12:49:15;;;;;;;9.80;7.43;;;4.00;1.00;;;;;;5053964;28;20776;-62
2022/01/08 12:52:05;;;;;;;9.57;6.13;;;4.10;1.00;;;;;;5053991;28;20469;-62
2022/01/08 12:54:33;;;;;;;8.80;6.23;;;4.10;1.00;;;;;;5055849;28;20466;-62
2022/01/08 12:57:05;;;;;;;11.33;6.40;;;4.00;1.00;;;;;;5057482;28;20486;-62
2022/01/08 12:59:38;;;;;;;9.47;5.00;;;4.10;1.00;;;;;;5056767;28;20491;-62
2022/01/08 13:02:08;;;;;;;9.40;6.43;;;3.80;1.00;;;;;;5057755;28;20919;-62
2022/01/08 13:04:38;;;;;;;12.80;6.13;;;3.80;1.00;;;;;;5057702;28;20900;-62
2022/01/08 13:07:07;;;;;;;13.93;6.13;;;4.00;1.00;;;;;;5058098;28;20888;-62
2022/01/08 13:09:34;;;;;;;14.70;5.70;;;3.90;1.00;;;;;;5057400;28;20458;-62
2022/01/08 13:12:01;;;;;;;7.83;5.37;;;3.90;1.00;;;;;;5045584;28;20491;-62
2022/01/08 13:14:30;;;;;;;10.33;5.90;;;3.80;1.00;;;;;;5050837;28;20464;-57